createdAt,value
2018-04-16T00:00:10.000Z,12.80
2018-04-16T00:02:38.837Z,12.80
2018-04-16T00:05:07.673Z,12.80
2018-04-16T00:07:36.608Z,12.70
2018-04-16T00:10:05.806Z,12.60
2018-04-16T00:12:34.879Z,12.60
2018-04-16T00:15:04.443Z,12.40
2018-04-16T00:17:33.230Z,12.40
2018-04-16T00:20:02.757Z,12.30
2018-04-16T00:22:31.723Z,12.30
2018-04-16T00:25:00.561Z,12.30
2018-04-16T00:27:30.061Z,12.20
2018-04-16T00:29:59.066Z,12.20
2018-04-16T00:32:33.593Z,12.40
2018-04-16T00:35:07.876Z,12.70
2018-04-16T00:37:42.444Z,12.90
2018-04-16T00:40:17.078Z,13.20
2018-04-16T00:42:51.578Z,13.20
2018-04-16T00:45:26.463Z,13.30
2018-04-16T00:48:00.883Z,13.30
2018-04-16T00:50:35.302Z,13.10
2018-04-16T00:53:10.636Z,12.80
2018-04-16T00:55:45.051Z,12.80
2018-04-16T00:58:19.293Z,12.80
2018-04-16T01:00:53.593Z,12.70
2018-04-16T01:03:28.018Z,12.60
2018-04-16T01:06:02.321Z,12.60
2018-04-16T01:08:36.800Z,12.60
2018-04-16T01:11:11.268Z,12.70
2018-04-16T01:13:45.740Z,12.60
2018-04-16T01:16:19.979Z,12.60
2018-04-16T01:18:54.654Z,12.60
2018-04-16T01:21:28.901Z,12.50
2018-04-16T01:24:04.284Z,12.40
2018-04-16T01:29:45.574Z,12.40
2018-04-16T01:32:20.806Z,12.40
2018-04-16T01:34:55.174Z,12.40
2018-04-16T01:37:29.805Z,12.30
2018-04-16T01:40:04.230Z,12.30
2018-04-16T01:42:38.499Z,12.20
2018-04-16T01:45:12.989Z,12.30
2018-04-16T01:47:47.486Z,12.30
2018-04-16T01:50:22.525Z,12.30
2018-04-16T01:52:57.761Z,12.30
2018-04-16T01:55:32.492Z,12.30
2018-04-16T01:58:07.954Z,12.30
2018-04-16T02:00:56.655Z,12.30
2018-04-16T02:03:31.056Z,12.70
2018-04-16T02:06:06.221Z,13.30
2018-04-16T02:08:40.469Z,13.20
2018-04-16T02:11:14.812Z,13.20
2018-04-16T02:13:49.096Z,13.10
2018-04-16T02:16:23.421Z,12.90
2018-04-16T02:18:57.691Z,12.80
2018-04-16T02:21:32.151Z,12.70
2018-04-16T02:24:06.773Z,12.60
2018-04-16T02:26:41.336Z,12.50
2018-04-16T02:29:15.824Z,12.40
2018-04-16T02:31:50.556Z,12.40
2018-04-16T02:34:24.838Z,12.60
2018-04-16T02:36:59.179Z,12.80
2018-04-16T02:39:33.446Z,12.90
2018-04-16T02:42:07.730Z,13.10
2018-04-16T02:44:42.221Z,13.20
2018-04-16T02:47:16.934Z,13.30
2018-04-16T02:49:52.051Z,13.00
2018-04-16T02:52:26.632Z,12.90
2018-04-16T02:55:01.085Z,12.70
2018-04-16T02:57:35.752Z,12.50
2018-04-16T03:00:10.286Z,12.20
2018-04-16T03:02:44.717Z,12.10
2018-04-16T03:05:19.138Z,12.00
2018-04-16T03:07:53.342Z,11.90
2018-04-16T03:10:28.056Z,11.80
2018-04-16T03:13:02.428Z,11.80
2018-04-16T03:15:37.696Z,11.60
2018-04-16T03:18:12.002Z,11.60
2018-04-16T03:20:46.570Z,11.50
2018-04-16T03:23:21.106Z,11.60
2018-04-16T03:25:55.802Z,11.70
2018-04-16T03:28:30.449Z,11.70
2018-04-16T03:31:04.693Z,11.70
2018-04-16T03:33:39.079Z,11.70
2018-04-16T03:36:13.462Z,11.60
2018-04-16T03:38:47.741Z,11.50
2018-04-16T03:41:22.177Z,11.50
2018-04-16T03:43:56.507Z,11.40
2018-04-16T03:46:31.964Z,11.20
2018-04-16T03:49:07.223Z,11.20
2018-04-16T03:51:39.938Z,11.20
2018-04-16T03:54:08.806Z,11.10
2018-04-16T03:56:38.412Z,11.00
2018-04-16T03:59:07.976Z,11.00
2018-04-16T04:01:37.440Z,11.00
2018-04-16T04:04:06.587Z,10.90
2018-04-16T04:06:35.787Z,10.90
2018-04-16T04:09:10.675Z,10.80
2018-04-16T04:11:41.891Z,10.80
2018-04-16T04:14:12.124Z,10.80
2018-04-16T04:16:42.667Z,10.80
2018-04-16T04:19:12.334Z,10.80
2018-04-16T04:21:42.561Z,10.80
2018-04-16T04:24:23.908Z,10.80
2018-04-16T04:27:04.623Z,10.90
2018-04-16T04:29:46.094Z,10.90
2018-04-16T04:32:15.030Z,10.90
2018-04-16T04:34:44.579Z,10.90
2018-04-16T04:37:13.393Z,10.90
2018-04-16T04:39:42.269Z,10.90
2018-04-16T04:42:11.100Z,11.00
2018-04-16T04:44:40.145Z,11.00
2018-04-16T04:47:09.209Z,11.00
2018-04-16T04:49:38.775Z,11.00
2018-04-16T04:52:07.951Z,11.00
2018-04-16T04:54:36.745Z,11.10
2018-04-16T04:57:05.770Z,11.20
2018-04-16T04:59:34.644Z,11.20
2018-04-16T05:02:03.441Z,11.30
2018-04-16T05:04:32.570Z,11.40
2018-04-16T05:07:02.193Z,11.60
2018-04-16T05:09:31.769Z,11.90
2018-04-16T05:12:01.565Z,12.20
2018-04-16T05:14:30.335Z,12.20
2018-04-16T05:16:59.257Z,12.40
2018-04-16T05:19:28.093Z,12.60
2018-04-16T05:21:56.876Z,12.80
2018-04-16T05:24:25.681Z,13.00
2018-04-16T05:26:54.672Z,13.20
2018-04-16T05:29:23.420Z,13.30
2018-04-16T05:31:52.225Z,13.40
2018-04-16T05:34:21.254Z,13.50
2018-04-16T05:36:50.028Z,13.50
2018-04-16T05:39:18.812Z,13.60
2018-04-16T05:41:47.588Z,13.60
2018-04-16T05:44:16.439Z,13.70
2018-04-16T05:46:45.298Z,13.90
2018-04-16T05:49:14.085Z,14.00
2018-04-16T05:51:42.988Z,14.10
2018-04-16T05:54:11.761Z,14.20
2018-04-16T05:56:40.524Z,14.40
2018-04-16T05:59:10.052Z,14.50
2018-04-16T06:01:39.002Z,14.50
2018-04-16T06:04:07.728Z,14.70
2018-04-16T06:06:36.965Z,14.90
2018-04-16T06:09:06.492Z,15.10
2018-04-16T06:11:36.511Z,15.20
2018-04-16T06:14:05.586Z,15.20
2018-04-16T06:16:35.347Z,15.50
2018-04-16T06:19:04.908Z,15.50
2018-04-16T06:21:34.597Z,15.80
2018-04-16T06:24:03.471Z,15.70
2018-04-16T06:26:32.341Z,16.10
2018-04-16T06:29:01.089Z,16.10
2018-04-16T06:31:29.880Z,16.30
2018-04-16T06:33:59.390Z,16.40
2018-04-16T06:36:28.324Z,16.40
2018-04-16T06:38:57.102Z,16.60
2018-04-16T06:41:26.658Z,17.10
2018-04-16T06:43:55.487Z,17.10
2018-04-16T06:46:25.053Z,17.30
2018-04-16T06:48:53.944Z,17.30
2018-04-16T06:51:23.046Z,17.40
2018-04-16T06:53:51.772Z,17.50
2018-04-16T06:56:21.435Z,17.80
2018-04-16T06:58:50.444Z,17.80
2018-04-16T07:01:20.013Z,18.20
2018-04-16T07:03:48.972Z,18.20
2018-04-16T07:06:18.617Z,18.60
2018-04-16T07:08:47.457Z,18.60
2018-04-16T07:11:16.172Z,18.60
2018-04-16T07:13:45.532Z,18.60
2018-04-16T07:16:15.326Z,19.00
2018-04-16T07:18:44.583Z,19.00
2018-04-16T07:21:13.558Z,19.20
2018-04-16T07:23:42.435Z,19.50
2018-04-16T07:26:11.968Z,20.20
2018-04-16T07:28:40.766Z,20.10
2018-04-16T07:31:09.718Z,20.30
2018-04-16T07:33:38.526Z,20.50
2018-04-16T07:36:07.345Z,20.70
2018-04-16T07:38:36.169Z,20.90
2018-04-16T07:41:05.821Z,20.90
2018-04-16T07:43:35.022Z,20.90
2018-04-16T07:46:03.859Z,21.00
2018-04-16T07:48:32.651Z,20.50
2018-04-16T07:51:01.532Z,20.90
2018-04-16T07:53:31.100Z,20.90
2018-04-16T07:55:59.932Z,20.90
2018-04-16T07:58:30.127Z,21.10
2018-04-16T08:00:59.407Z,21.00
2018-04-16T08:03:28.399Z,20.90
2018-04-16T08:05:58.396Z,20.90
2018-04-16T08:08:27.508Z,20.80
2018-04-16T08:10:56.581Z,20.70
2018-04-16T08:13:26.343Z,20.70
2018-04-16T08:15:55.152Z,20.70
2018-04-16T08:18:24.247Z,20.60
2018-04-16T08:20:53.005Z,20.50
2018-04-16T08:23:21.871Z,20.70
2018-04-16T08:25:51.605Z,21.90
2018-04-16T08:28:20.426Z,21.90
2018-04-16T08:30:49.396Z,22.20
2018-04-16T08:33:19.215Z,22.10
2018-04-16T08:35:48.897Z,23.00
2018-04-16T08:38:17.682Z,23.00
2018-04-16T08:40:46.585Z,23.30
2018-04-16T08:43:15.448Z,23.70
2018-04-16T08:45:44.241Z,23.90
2018-04-16T08:48:13.125Z,24.60
2018-04-16T08:50:42.693Z,25.30
2018-04-16T08:53:11.682Z,25.30
2018-04-16T08:55:40.447Z,25.50
2018-04-16T08:58:10.204Z,25.70
2018-04-16T09:00:38.975Z,25.70
2018-04-16T09:03:08.280Z,25.90
2018-04-16T09:05:37.059Z,25.50
2018-04-16T09:08:06.158Z,25.60
2018-04-16T09:10:36.109Z,25.70
2018-04-16T09:13:04.994Z,25.60
2018-04-16T09:15:33.867Z,25.40
2018-04-16T09:18:03.806Z,25.50
2018-04-16T09:20:32.765Z,25.40
2018-04-16T09:23:02.712Z,25.30
2018-04-16T09:25:31.544Z,25.30
2018-04-16T09:28:00.204Z,25.10
2018-04-16T09:30:28.998Z,25.00
2018-04-16T09:32:57.991Z,24.90
2018-04-16T09:35:27.844Z,24.40
2018-04-16T09:37:56.666Z,24.30
2018-04-16T09:40:25.837Z,24.40
2018-04-16T09:42:55.168Z,24.60
2018-04-16T09:45:24.748Z,24.90
2018-04-16T09:47:53.812Z,24.80
2018-04-16T09:50:22.670Z,25.00
2018-04-16T09:52:52.818Z,25.10
2018-04-16T09:55:22.077Z,25.10
2018-04-16T09:57:51.211Z,25.00
2018-04-16T10:00:26.052Z,25.20
2018-04-16T10:02:58.228Z,25.20
2018-04-16T10:05:27.021Z,25.40
2018-04-16T10:07:55.882Z,25.40
2018-04-16T10:10:24.649Z,25.40
2018-04-16T10:12:53.470Z,25.20
2018-04-16T10:15:22.903Z,25.40
2018-04-16T10:17:52.561Z,25.10
2018-04-16T10:20:22.301Z,25.40
2018-04-16T10:22:51.296Z,25.40
2018-04-16T10:25:20.438Z,25.50
2018-04-16T10:27:50.177Z,25.50
2018-04-16T10:30:19.966Z,25.50
2018-04-16T10:32:49.514Z,25.60
2018-04-16T10:35:18.304Z,25.60
2018-04-16T10:37:47.194Z,25.60
2018-04-16T10:40:16.193Z,25.80
2018-04-16T10:42:45.144Z,26.20
2018-04-16T10:45:14.939Z,26.10
2018-04-16T10:47:43.768Z,25.80
2018-04-16T10:50:12.626Z,26.10
2018-04-16T10:52:42.425Z,26.30
2018-04-16T10:55:11.464Z,26.30
2018-04-16T10:57:40.274Z,26.40
2018-04-16T11:00:09.424Z,26.40
2018-04-16T11:02:38.888Z,26.30
2018-04-16T11:05:07.774Z,26.30
2018-04-16T11:07:36.566Z,26.50
2018-04-16T11:10:06.196Z,26.60
2018-04-16T11:12:35.477Z,26.50
2018-04-16T11:15:05.050Z,26.90
2018-04-16T11:17:33.818Z,26.90
2018-04-16T11:20:04.138Z,26.60
2018-04-16T11:22:33.739Z,26.70
2018-04-16T11:25:03.619Z,26.50
2018-04-16T11:27:32.452Z,26.60
2018-04-16T11:30:01.570Z,26.70
2018-04-16T11:32:30.571Z,26.90
2018-04-16T11:34:59.586Z,26.90
2018-04-16T11:37:29.091Z,27.20
2018-04-16T11:39:58.450Z,27.20
2018-04-16T11:42:27.739Z,27.00
2018-04-16T11:44:58.700Z,26.80
2018-04-16T11:47:27.907Z,27.10
2018-04-16T11:49:57.949Z,27.20
2018-04-16T11:52:26.909Z,27.20
2018-04-16T11:54:55.685Z,27.60
2018-04-16T11:57:24.519Z,27.80
2018-04-16T11:59:53.455Z,28.00
2018-04-16T12:02:22.558Z,27.90
2018-04-16T12:04:51.775Z,28.20
2018-04-16T12:07:21.031Z,28.60
2018-04-16T12:09:50.531Z,28.90
2018-04-16T12:12:19.720Z,29.10
2018-04-16T12:14:48.509Z,29.50
2018-04-16T12:17:18.113Z,30.00
2018-04-16T12:19:47.396Z,30.00
2018-04-16T12:22:16.703Z,30.20
2018-04-16T12:24:45.918Z,30.10
2018-04-16T12:27:14.887Z,29.90
2018-04-16T12:29:44.092Z,30.20
2018-04-16T12:32:14.401Z,29.90
2018-04-16T12:34:43.267Z,29.90
2018-04-16T12:37:15.885Z,29.70
2018-04-16T12:39:45.263Z,29.70
2018-04-16T12:42:14.095Z,29.80
2018-04-16T12:44:43.308Z,29.80
2018-04-16T12:47:12.253Z,29.60
2018-04-16T12:49:42.183Z,29.60
2018-04-16T12:52:11.544Z,29.70
2018-04-16T12:54:40.619Z,29.80
2018-04-16T12:57:09.480Z,29.60
2018-04-16T12:59:39.027Z,29.70
2018-04-16T13:02:07.875Z,29.70
2018-04-16T13:04:37.527Z,29.70
2018-04-16T13:07:06.400Z,29.70
2018-04-16T13:09:36.142Z,29.80
2018-04-16T13:12:05.367Z,29.90
2018-04-16T13:14:35.174Z,30.00
2018-04-16T13:17:03.938Z,30.00
2018-04-16T13:19:32.741Z,30.00
2018-04-16T13:22:02.280Z,30.00
2018-04-16T13:24:31.374Z,29.80
2018-04-16T13:27:01.164Z,29.70
2018-04-16T13:29:29.946Z,29.70
2018-04-16T13:31:58.747Z,29.60
2018-04-16T13:34:27.903Z,29.60
2018-04-16T13:36:56.788Z,29.60
2018-04-16T13:39:26.370Z,29.50
2018-04-16T13:41:55.975Z,29.40
2018-04-16T13:44:24.741Z,29.40
2018-04-16T13:46:53.542Z,29.30
2018-04-16T13:49:23.030Z,29.40
2018-04-16T13:51:52.083Z,29.40
2018-04-16T13:54:22.021Z,29.00
2018-04-16T13:56:50.838Z,29.00
2018-04-16T13:59:20.049Z,28.80
2018-04-16T14:01:49.642Z,28.50
2018-04-16T14:04:19.170Z,28.50
2018-04-16T14:06:48.098Z,28.50
2018-04-16T14:09:16.974Z,28.40
2018-04-16T14:11:46.686Z,28.60
2018-04-16T14:14:15.905Z,28.60
2018-04-16T14:16:44.771Z,28.50
2018-04-16T14:19:14.335Z,28.10
2018-04-16T14:21:43.277Z,28.10
2018-04-16T14:24:13.014Z,27.80
2018-04-16T14:26:41.818Z,27.80
2018-04-16T14:29:10.970Z,27.60
2018-04-16T14:31:39.899Z,27.50
2018-04-16T14:34:09.510Z,27.10
2018-04-16T14:36:38.360Z,27.10
2018-04-16T14:39:07.136Z,26.70
2018-04-16T14:41:35.900Z,26.20
2018-04-16T14:44:05.713Z,25.30
2018-04-16T14:46:38.373Z,24.90
2018-04-16T14:49:07.639Z,24.80
2018-04-16T14:51:36.405Z,24.50
2018-04-16T14:54:05.247Z,24.50
2018-04-16T14:56:34.114Z,24.30
2018-04-16T14:59:03.371Z,24.00
2018-04-16T15:01:32.386Z,24.00
2018-04-16T15:04:01.431Z,23.60
2018-04-16T15:06:30.287Z,23.30
2018-04-16T15:08:59.118Z,23.00
2018-04-16T15:11:27.927Z,22.70
2018-04-16T15:13:56.789Z,22.40
2018-04-16T15:16:25.595Z,22.20
2018-04-16T15:18:55.367Z,21.80
2018-04-16T15:21:24.148Z,21.80
2018-04-16T15:23:52.912Z,21.80
2018-04-16T15:26:21.959Z,21.80
2018-04-16T15:28:51.128Z,21.70
2018-04-16T15:31:20.180Z,21.60
2018-04-16T15:33:48.830Z,21.60
2018-04-16T15:36:17.619Z,21.50
2018-04-16T15:38:46.563Z,21.50
2018-04-16T15:41:16.185Z,21.30
2018-04-16T15:43:45.190Z,21.20
2018-04-16T15:46:14.207Z,21.20
2018-04-16T15:48:43.180Z,21.10
2018-04-16T15:51:11.993Z,21.00
2018-04-16T15:53:40.893Z,20.90
2018-04-16T15:56:10.468Z,20.80
2018-04-16T15:58:39.174Z,20.80
2018-04-16T16:01:08.723Z,20.70
2018-04-16T16:03:37.400Z,20.60
2018-04-16T16:06:06.433Z,20.50
2018-04-16T16:08:35.608Z,20.40
2018-04-16T16:11:04.727Z,20.30
2018-04-16T16:13:33.746Z,20.20
2018-04-16T16:16:03.185Z,20.10
2018-04-16T16:18:32.095Z,20.10
2018-04-16T16:21:00.934Z,20.10
2018-04-16T16:23:32.667Z,20.00
2018-04-16T16:39:02.033Z,20.00
2018-04-16T16:41:30.726Z,18.90
2018-04-16T16:44:02.569Z,18.80
2018-04-16T16:46:31.677Z,18.80
2018-04-16T16:49:01.420Z,18.60
2018-04-16T16:51:30.913Z,18.40
2018-04-16T16:53:59.921Z,18.40
2018-04-16T16:56:29.443Z,18.30
2018-04-16T16:58:58.716Z,18.30
2018-04-16T17:01:27.552Z,18.20
2018-04-16T17:03:56.519Z,18.10
2018-04-16T17:06:26.129Z,18.00
2018-04-16T17:08:55.038Z,18.00
2018-04-16T17:11:23.799Z,18.00
2018-04-16T17:13:53.605Z,17.90
2018-04-16T17:16:22.397Z,17.80
2018-04-16T17:18:52.127Z,17.70
2018-04-16T17:21:20.846Z,17.70
2018-04-16T17:23:49.574Z,17.60
2018-04-16T17:26:19.319Z,17.60
2018-04-16T17:28:48.082Z,17.60
2018-04-16T17:31:17.134Z,17.50
2018-04-16T17:33:45.961Z,17.50
2018-04-16T17:36:15.541Z,17.40
2018-04-16T17:38:44.307Z,17.40
2018-04-16T17:41:13.082Z,17.40
2018-04-16T17:43:41.802Z,17.30
2018-04-16T17:46:10.728Z,17.30
2018-04-16T17:48:40.163Z,17.30
2018-04-16T17:51:08.840Z,17.30
2018-04-16T17:53:37.533Z,17.20
2018-04-16T17:56:06.504Z,17.20
2018-04-16T17:58:35.996Z,17.00
2018-04-16T18:01:05.914Z,16.80
2018-04-16T18:03:35.429Z,16.80
2018-04-16T18:06:04.825Z,16.70
2018-04-16T18:08:33.582Z,16.70
2018-04-16T18:11:02.407Z,16.70
2018-04-16T18:13:31.180Z,16.70
2018-04-16T18:16:00.018Z,16.60
2018-04-16T18:18:28.660Z,16.60
2018-04-16T18:20:58.335Z,16.50
2018-04-16T18:23:27.123Z,16.50
2018-04-16T18:25:55.953Z,16.50
2018-04-16T18:28:25.424Z,16.40
2018-04-16T18:30:54.201Z,16.40
2018-04-16T18:33:23.079Z,16.40
2018-04-16T18:35:51.793Z,16.40
2018-04-16T18:38:20.960Z,16.40
2018-04-16T18:40:49.814Z,16.40
2018-04-16T18:43:19.501Z,16.30
2018-04-16T18:45:48.826Z,16.20
2018-04-16T18:48:18.280Z,16.10
2018-04-16T18:50:46.952Z,16.10
2018-04-16T18:53:15.676Z,16.00
2018-04-16T18:55:44.435Z,16.00
2018-04-16T18:58:13.198Z,15.90
2018-04-16T19:00:41.966Z,15.80
2018-04-16T19:03:11.236Z,15.80
2018-04-16T19:05:39.980Z,15.70
2018-04-16T19:08:08.729Z,15.70
2018-04-16T19:10:37.523Z,15.70
2018-04-16T19:13:07.258Z,15.80
2018-04-16T19:15:36.010Z,15.80
2018-04-16T19:18:05.568Z,15.80
2018-04-16T19:20:39.892Z,15.80
2018-04-16T19:23:08.639Z,15.80
2018-04-16T19:25:37.361Z,15.80
2018-04-16T19:28:11.691Z,15.90
2018-04-16T19:30:40.497Z,15.90
2018-04-16T19:33:15.110Z,15.80
2018-04-16T19:35:44.221Z,15.80
2018-04-16T19:38:12.869Z,15.70
2018-04-16T19:40:41.578Z,15.70
2018-04-16T19:43:10.313Z,15.70
2018-04-16T19:45:39.129Z,15.70
2018-04-16T19:48:07.851Z,15.60
2018-04-16T19:50:36.739Z,15.60
2018-04-16T19:53:06.596Z,15.40
2018-04-16T19:55:41.012Z,15.40
2018-04-16T19:58:15.836Z,15.30
2018-04-16T20:00:45.567Z,15.10
2018-04-16T20:03:19.805Z,15.10
2018-04-16T20:05:48.698Z,15.00
2018-04-16T20:08:17.528Z,15.00
2018-04-16T20:10:46.976Z,14.90
2018-04-16T20:13:15.729Z,14.90
2018-04-16T20:15:44.762Z,14.90
2018-04-16T20:18:13.664Z,14.80
2018-04-16T20:20:42.404Z,14.70
2018-04-16T20:23:11.835Z,14.70
2018-04-16T20:25:42.649Z,14.70
2018-04-16T20:28:11.349Z,14.60
2018-04-16T20:30:40.858Z,14.60
2018-04-16T20:33:09.583Z,14.60
2018-04-16T20:35:39.198Z,14.60
2018-04-16T20:38:07.980Z,14.60
2018-04-16T20:40:37.336Z,14.70
2018-04-16T20:43:07.001Z,14.60
2018-04-16T20:45:36.617Z,14.60
2018-04-16T20:48:05.284Z,14.60
2018-04-16T20:50:34.040Z,14.60
2018-04-16T20:53:02.897Z,14.60
2018-04-16T20:55:32.755Z,14.60
2018-04-16T20:58:01.546Z,14.60
2018-04-16T21:00:30.451Z,14.70
2018-04-16T21:02:59.172Z,14.70
2018-04-16T21:05:28.675Z,14.60
2018-04-16T21:07:58.193Z,14.60
2018-04-16T21:10:26.942Z,14.70
2018-04-16T21:12:55.659Z,14.50
2018-04-16T21:15:24.747Z,14.50
2018-04-16T21:17:54.256Z,14.50
2018-04-16T21:20:23.823Z,14.50
2018-04-16T21:22:52.574Z,14.50
2018-04-16T21:25:21.323Z,14.50
2018-04-16T21:27:50.470Z,14.50
2018-04-16T21:30:19.363Z,14.60
2018-04-16T21:32:48.109Z,14.60
2018-04-16T21:35:16.954Z,14.70
2018-04-16T21:37:45.711Z,14.70
2018-04-16T21:40:14.463Z,14.80
2018-04-16T21:42:43.078Z,14.80
2018-04-16T21:45:12.631Z,14.70
2018-04-16T21:47:41.538Z,14.70
2018-04-16T21:50:10.728Z,14.60
2018-04-16T21:52:39.606Z,14.50
2018-04-16T21:55:08.307Z,14.30
2018-04-16T21:57:37.044Z,14.30
2018-04-16T22:00:05.945Z,14.20
2018-04-16T22:02:34.632Z,14.20
2018-04-16T22:05:03.628Z,14.10
2018-04-16T22:07:32.766Z,14.10
2018-04-16T22:10:01.472Z,14.00
2018-04-16T22:12:30.301Z,14.00
2018-04-16T22:14:59.001Z,14.00
2018-04-16T22:17:28.127Z,14.10
2018-04-16T22:19:56.991Z,14.10
2018-04-16T22:22:25.907Z,14.20
2018-04-16T22:24:54.712Z,14.20
2018-04-16T22:27:23.465Z,14.10
2018-04-16T22:29:52.597Z,14.10
2018-04-16T22:32:22.170Z,13.90
2018-04-16T22:34:51.016Z,13.90
2018-04-16T22:37:19.750Z,13.80
2018-04-16T22:39:48.629Z,13.70
2018-04-16T22:42:18.530Z,13.70
2018-04-16T22:44:47.335Z,13.70
2018-04-16T22:47:16.082Z,13.60
2018-04-16T22:49:44.710Z,13.60
2018-04-16T22:52:13.732Z,13.60
2018-04-16T22:54:42.569Z,13.50
2018-04-16T22:57:11.242Z,13.50
2018-04-16T22:59:40.205Z,13.50
2018-04-16T23:02:09.026Z,13.50
2018-04-16T23:04:37.883Z,13.50
2018-04-16T23:07:06.633Z,13.50
2018-04-16T23:09:35.441Z,13.50
2018-04-16T23:12:04.281Z,13.50
2018-04-16T23:14:33.304Z,13.50
2018-04-16T23:17:02.305Z,13.40
2018-04-16T23:19:31.070Z,13.40
2018-04-16T23:22:00.134Z,13.50
2018-04-16T23:24:29.057Z,13.50
2018-04-16T23:26:58.001Z,13.50
2018-04-16T23:29:26.903Z,13.40
2018-04-16T23:31:55.681Z,13.20
2018-04-16T23:34:25.296Z,13.60
2018-04-16T23:36:54.182Z,13.60
2018-04-16T23:39:23.176Z,13.70
2018-04-16T23:41:51.912Z,13.70
2018-04-16T23:44:21.074Z,13.80
2018-04-16T23:46:50.308Z,13.90
2018-04-16T23:49:19.300Z,14.10
2018-04-16T23:51:48.021Z,14.60
2018-04-16T23:54:16.870Z,15.30
2018-04-16T23:56:46.535Z,16.60
2018-04-16T23:59:15.341Z,16.50
